createdAt,value
2023-03-19T00:00:34.438Z,0.64
2023-03-19T00:03:01.803Z,0.65
2023-03-19T00:05:29.178Z,0.60
2023-03-19T00:07:56.432Z,0.62
2023-03-19T00:10:23.741Z,0.63
2023-03-19T00:12:50.946Z,0.60
2023-03-19T00:15:18.293Z,0.59
2023-03-19T00:17:45.555Z,0.55
2023-03-19T00:20:13.268Z,0.49
2023-03-19T00:22:40.576Z,0.48
2023-03-19T00:25:08.682Z,0.43
2023-03-19T00:27:37.627Z,0.42
2023-03-19T00:30:06.711Z,0.43
2023-03-19T00:32:34.560Z,0.43
2023-03-19T00:35:01.794Z,0.42
2023-03-19T00:37:29.753Z,0.46
2023-03-19T00:39:57.231Z,0.42
2023-03-19T00:42:24.553Z,0.43
2023-03-19T00:44:51.988Z,0.46
2023-03-19T00:47:19.277Z,0.45
2023-03-19T00:49:46.477Z,0.40
2023-03-19T00:52:13.744Z,0.39
2023-03-19T00:54:41.758Z,0.33
2023-03-19T00:57:09.037Z,0.35
2023-03-19T00:59:36.424Z,0.32
2023-03-19T01:02:04.162Z,0.29
2023-03-19T01:04:31.845Z,0.32
2023-03-19T01:09:27.129Z,0.32
2023-03-19T01:11:54.717Z,0.34
2023-03-19T01:14:22.185Z,0.36
2023-03-19T01:16:49.509Z,0.37
2023-03-19T01:19:16.978Z,0.40
2023-03-19T01:21:46.777Z,0.40
2023-03-19T01:24:18.317Z,0.42
2023-03-19T01:26:51.130Z,0.43
2023-03-19T01:29:29.243Z,0.42
2023-03-19T01:31:59.427Z,0.42
2023-03-19T01:34:32.372Z,0.42
2023-03-19T01:37:08.066Z,0.41
2023-03-19T01:39:35.676Z,0.40
2023-03-19T01:42:07.688Z,0.41
2023-03-19T01:44:39.993Z,0.40
2023-03-19T01:47:38.661Z,0.38
2023-03-19T01:50:26.145Z,0.38
2023-03-19T01:53:15.604Z,0.38
2023-03-19T01:55:52.945Z,0.37
2023-03-19T01:58:33.508Z,0.36
2023-03-19T02:01:32.481Z,0.36
2023-03-19T02:04:00.132Z,0.38
2023-03-19T02:06:31.208Z,0.34
2023-03-19T02:09:00.160Z,0.34
2023-03-19T02:11:28.240Z,0.36
2023-03-19T02:13:56.165Z,0.34
2023-03-19T02:16:23.743Z,0.31
2023-03-19T02:18:52.227Z,0.27
2023-03-19T02:21:20.516Z,0.29
2023-03-19T02:23:51.753Z,0.31
2023-03-19T02:26:24.517Z,0.33
2023-03-19T02:28:53.912Z,0.40
2023-03-19T02:31:30.686Z,0.58
2023-03-19T02:34:02.493Z,0.89
2023-03-19T02:36:33.026Z,1.27
2023-03-19T02:39:02.842Z,1.69
2023-03-19T02:41:32.193Z,2.17
2023-03-19T02:44:01.199Z,2.67
2023-03-19T02:46:28.630Z,3.17
2023-03-19T02:48:56.069Z,3.70
2023-03-19T02:51:24.935Z,4.22
2023-03-19T02:53:52.142Z,4.74
2023-03-19T02:56:19.432Z,5.25
2023-03-19T02:58:46.878Z,5.76
2023-03-19T03:01:14.763Z,6.28
2023-03-19T03:03:42.059Z,6.78
2023-03-19T03:06:10.011Z,7.27
2023-03-19T03:08:37.291Z,7.77
2023-03-19T03:11:04.569Z,8.24
2023-03-19T03:13:31.907Z,8.68
2023-03-19T03:15:59.395Z,9.14
2023-03-19T03:18:27.323Z,9.59
2023-03-19T03:20:54.742Z,10.09
2023-03-19T03:23:22.309Z,10.58
2023-03-19T03:25:52.550Z,11.04
2023-03-19T03:28:19.896Z,11.52
2023-03-19T03:30:47.291Z,11.95
2023-03-19T03:33:14.496Z,12.39
2023-03-19T03:35:41.807Z,12.79
2023-03-19T03:38:09.108Z,13.27
2023-03-19T03:40:37.131Z,13.63
2023-03-19T03:43:04.541Z,13.96
2023-03-19T03:45:34.489Z,14.31
2023-03-19T03:48:02.263Z,14.76
2023-03-19T03:50:30.174Z,15.16
2023-03-19T03:53:01.972Z,15.58
2023-03-19T03:55:29.481Z,15.92
2023-03-19T03:57:56.861Z,16.27
2023-03-19T04:00:24.452Z,16.58
2023-03-19T04:02:51.951Z,16.86
2023-03-19T04:05:19.683Z,17.21
2023-03-19T04:07:47.204Z,17.59
2023-03-19T04:10:15.676Z,17.81
2023-03-19T04:12:42.925Z,18.12
2023-03-19T04:15:11.429Z,18.48
2023-03-19T04:17:42.064Z,18.73
2023-03-19T04:20:11.413Z,18.94
2023-03-19T04:22:38.935Z,19.25
2023-03-19T04:25:08.534Z,19.54
2023-03-19T04:27:37.659Z,19.79
2023-03-19T04:30:05.457Z,20.01
2023-03-19T04:32:34.028Z,20.23
2023-03-19T04:35:01.516Z,20.49
2023-03-19T04:37:29.815Z,20.72
2023-03-19T04:39:57.449Z,20.99
2023-03-19T04:42:25.104Z,21.15
2023-03-19T04:45:12.576Z,21.39
2023-03-19T04:47:40.980Z,21.58
2023-03-19T04:50:08.856Z,21.79
2023-03-19T04:52:37.644Z,21.98
2023-03-19T04:55:06.647Z,22.27
2023-03-19T04:57:44.805Z,22.48
2023-03-19T05:00:12.579Z,22.66
2023-03-19T05:02:41.655Z,22.85
2023-03-19T05:05:10.181Z,22.93
2023-03-19T05:07:38.415Z,23.11
2023-03-19T05:10:06.952Z,23.23
2023-03-19T05:12:34.968Z,23.63
2023-03-19T05:15:02.268Z,23.80
2023-03-19T05:17:33.203Z,23.92
2023-03-19T05:20:09.814Z,24.05
2023-03-19T05:22:38.916Z,24.21
2023-03-19T05:25:07.232Z,24.29
2023-03-19T05:27:34.683Z,24.48
2023-03-19T05:30:06.510Z,24.70
2023-03-19T05:32:41.026Z,24.73
2023-03-19T05:35:14.853Z,25.10
2023-03-19T05:37:43.007Z,25.28
2023-03-19T05:40:10.625Z,25.44
2023-03-19T05:42:38.405Z,25.50
2023-03-19T05:45:06.807Z,25.61
2023-03-19T05:47:45.104Z,25.91
2023-03-19T05:50:12.645Z,25.98
2023-03-19T05:52:45.049Z,25.90
2023-03-19T05:55:12.480Z,25.86
2023-03-19T05:57:46.213Z,25.88
2023-03-19T06:00:25.563Z,26.05
2023-03-19T06:02:53.386Z,26.00
2023-03-19T06:05:48.992Z,26.05
2023-03-19T06:08:31.245Z,26.01
2023-03-19T06:11:09.421Z,25.99
2023-03-19T06:13:37.713Z,26.01
2023-03-19T06:16:07.682Z,25.97
2023-03-19T06:18:41.902Z,25.87
2023-03-19T06:21:12.236Z,25.86
2023-03-19T06:23:39.613Z,26.01
2023-03-19T06:26:08.307Z,25.98
2023-03-19T06:28:55.724Z,26.01
2023-03-19T06:31:24.172Z,26.01
2023-03-19T06:33:55.116Z,26.11
2023-03-19T06:36:26.391Z,26.20
2023-03-19T06:38:53.984Z,26.24
2023-03-19T06:41:21.604Z,26.18
2023-03-19T06:43:50.876Z,26.03
2023-03-19T06:46:18.228Z,25.95
2023-03-19T06:48:45.573Z,25.99
2023-03-19T06:51:12.837Z,25.90
2023-03-19T06:53:40.392Z,25.92
2023-03-19T06:56:07.868Z,25.97
2023-03-19T06:58:36.559Z,26.10
2023-03-19T07:01:04.056Z,26.24
2023-03-19T07:03:31.671Z,26.32
2023-03-19T07:05:59.023Z,26.38
2023-03-19T07:08:30.068Z,26.52
2023-03-19T07:10:57.638Z,26.63
2023-03-19T07:13:24.849Z,26.71
2023-03-19T07:15:52.177Z,26.79
2023-03-19T07:18:19.404Z,26.79
2023-03-19T07:20:46.665Z,26.78
2023-03-19T07:23:14.003Z,26.79
2023-03-19T07:25:41.686Z,26.77
2023-03-19T07:28:08.952Z,26.65
2023-03-19T07:30:36.441Z,26.44
2023-03-19T07:33:03.850Z,26.03
2023-03-19T07:35:31.297Z,25.67
2023-03-19T07:37:59.738Z,25.39
2023-03-19T07:40:27.370Z,24.89
2023-03-19T07:42:54.694Z,24.57
2023-03-19T07:45:23.304Z,24.20
2023-03-19T07:47:51.807Z,24.04
2023-03-19T07:50:19.345Z,23.55
2023-03-19T07:52:48.121Z,23.14
2023-03-19T07:55:16.031Z,22.64
2023-03-19T07:57:43.343Z,22.36
2023-03-19T08:00:10.997Z,22.15
2023-03-19T08:02:43.037Z,21.51
2023-03-19T08:05:10.757Z,20.08
2023-03-19T08:07:38.140Z,19.92
2023-03-19T08:10:05.899Z,20.08
2023-03-19T08:12:34.868Z,18.37
2023-03-19T08:15:02.132Z,18.09
2023-03-19T08:17:30.339Z,17.19
2023-03-19T08:19:57.608Z,17.11
2023-03-19T08:22:24.887Z,16.70
2023-03-19T08:24:52.208Z,15.16
2023-03-19T08:27:19.483Z,14.26
2023-03-19T08:29:46.944Z,14.25
2023-03-19T08:32:14.300Z,13.89
2023-03-19T08:34:41.786Z,12.37
2023-03-19T08:37:09.035Z,12.09
2023-03-19T08:39:36.370Z,12.83
2023-03-19T08:42:03.717Z,12.07
2023-03-19T08:44:30.921Z,12.06
2023-03-19T08:46:58.206Z,12.66
2023-03-19T08:49:26.425Z,12.56
2023-03-19T08:51:53.638Z,12.32
2023-03-19T08:54:22.912Z,12.43
2023-03-19T08:56:50.334Z,12.13
2023-03-19T08:59:17.637Z,11.81
2023-03-19T09:01:44.839Z,11.53
2023-03-19T09:04:12.194Z,10.89
2023-03-19T09:06:39.505Z,11.09
2023-03-19T09:09:06.767Z,11.28
2023-03-19T09:11:34.096Z,11.65
2023-03-19T09:14:01.474Z,11.88
2023-03-19T09:16:28.847Z,10.68
2023-03-19T09:18:59.225Z,10.54
2023-03-19T09:21:26.971Z,10.10
2023-03-19T09:23:54.358Z,9.47
2023-03-19T09:26:21.515Z,9.18
2023-03-19T09:28:48.879Z,9.10
2023-03-19T09:31:16.076Z,8.67
2023-03-19T09:33:43.374Z,8.39
2023-03-19T09:36:10.645Z,7.62
2023-03-19T09:38:37.907Z,6.98
2023-03-19T09:41:11.260Z,7.45
2023-03-19T09:43:44.673Z,7.75
2023-03-19T09:46:15.286Z,7.90
2023-03-19T09:48:51.716Z,7.50
2023-03-19T09:51:22.770Z,7.80
2023-03-19T09:53:54.416Z,7.49
2023-03-19T09:56:21.706Z,7.58
2023-03-19T09:58:49.125Z,7.66
2023-03-19T10:01:24.129Z,7.72
2023-03-19T10:04:09.851Z,7.84
2023-03-19T10:06:42.918Z,7.80
2023-03-19T10:09:20.201Z,7.93
2023-03-19T10:11:56.598Z,7.74
2023-03-19T10:14:23.759Z,7.66
2023-03-19T10:16:53.308Z,7.72
2023-03-19T10:19:29.644Z,7.72
2023-03-19T10:22:00.348Z,7.70
2023-03-19T10:24:32.134Z,7.73
2023-03-19T10:27:06.148Z,7.73
2023-03-19T10:29:34.776Z,7.65
2023-03-19T10:32:09.647Z,7.58
2023-03-19T10:34:38.337Z,7.64
2023-03-19T10:37:08.293Z,7.63
2023-03-19T10:39:37.051Z,7.61
2023-03-19T10:42:10.960Z,7.71
2023-03-19T10:44:42.053Z,7.85
2023-03-19T10:47:16.871Z,7.97
2023-03-19T10:49:44.107Z,8.03
2023-03-19T10:52:32.897Z,7.91
2023-03-19T10:55:07.516Z,7.84
2023-03-19T10:57:35.243Z,7.98
2023-03-19T11:00:05.908Z,7.94
2023-03-19T11:02:33.854Z,7.70
2023-03-19T11:05:09.400Z,7.79
2023-03-19T11:07:37.476Z,7.89
2023-03-19T11:10:05.298Z,7.78
2023-03-19T11:12:34.292Z,7.75
2023-03-19T11:15:07.643Z,7.77
2023-03-19T11:17:45.725Z,7.71
2023-03-19T11:20:16.326Z,7.91
2023-03-19T11:22:43.563Z,7.85
2023-03-19T11:25:13.732Z,6.93
2023-03-19T11:27:41.708Z,6.97
2023-03-19T11:30:19.803Z,6.18
2023-03-19T11:32:50.221Z,6.77
2023-03-19T11:35:33.300Z,7.01
2023-03-19T11:38:02.260Z,6.97
2023-03-19T11:40:47.499Z,7.01
2023-03-19T11:43:38.652Z,6.53
2023-03-19T11:46:20.203Z,6.41
2023-03-19T11:48:50.514Z,6.27
2023-03-19T11:51:21.439Z,5.54
2023-03-19T11:54:08.092Z,5.80
2023-03-19T11:56:41.791Z,5.90
2023-03-19T11:59:27.701Z,6.20
2023-03-19T12:02:04.415Z,6.23
2023-03-19T12:04:50.454Z,5.43
2023-03-19T12:07:33.147Z,5.10
2023-03-19T12:10:19.111Z,5.56
2023-03-19T12:13:06.523Z,5.73
2023-03-19T12:15:54.057Z,5.22
2023-03-19T12:18:30.457Z,5.02
2023-03-19T12:21:10.604Z,5.13
2023-03-19T12:23:41.549Z,5.65
2023-03-19T12:26:10.354Z,5.63
2023-03-19T12:28:37.618Z,4.43
2023-03-19T12:31:20.320Z,4.68
2023-03-19T12:33:53.661Z,4.76
2023-03-19T12:36:24.141Z,4.05
2023-03-19T12:38:58.891Z,3.48
2023-03-19T12:41:29.895Z,3.25
2023-03-19T12:44:06.679Z,2.53
2023-03-19T12:46:46.325Z,2.52
2023-03-19T12:49:17.199Z,2.38
2023-03-19T12:51:46.987Z,2.31
2023-03-19T12:54:14.310Z,2.91
2023-03-19T12:56:49.500Z,3.31
2023-03-19T12:59:29.223Z,2.83
2023-03-19T13:02:20.099Z,2.81
2023-03-19T13:04:51.947Z,2.43
2023-03-19T13:07:25.011Z,2.23
2023-03-19T13:10:04.982Z,2.09
2023-03-19T13:12:34.550Z,1.93
2023-03-19T13:15:13.188Z,2.03
2023-03-19T13:17:41.778Z,2.31
2023-03-19T13:20:20.901Z,1.97
2023-03-19T13:22:53.959Z,1.41
2023-03-19T13:25:24.541Z,1.34
2023-03-19T13:27:55.643Z,1.10
2023-03-19T13:30:24.007Z,1.39
2023-03-19T13:32:54.729Z,1.08
2023-03-19T13:35:25.144Z,0.71
2023-03-19T13:37:56.693Z,0.62
2023-03-19T13:40:37.955Z,0.84
2023-03-19T13:43:06.590Z,0.91
2023-03-19T13:45:38.516Z,0.73
2023-03-19T13:48:25.060Z,0.45
2023-03-19T13:51:11.047Z,0.45
2023-03-19T13:53:40.887Z,0.23
2023-03-19T13:56:26.580Z,0.39
2023-03-19T13:59:15.348Z,-0.10
2023-03-19T14:01:47.746Z,-0.29
2023-03-19T14:04:44.651Z,-0.28
2023-03-19T14:07:19.397Z,-0.38
2023-03-19T14:10:07.539Z,-0.63
2023-03-19T14:12:39.375Z,-0.59
2023-03-19T14:15:10.166Z,-0.87
2023-03-19T14:17:37.387Z,-0.43
2023-03-19T14:20:12.534Z,-0.21
2023-03-19T14:22:40.229Z,-0.74
2023-03-19T14:25:14.471Z,-1.15
2023-03-19T14:27:49.617Z,-1.15
2023-03-19T14:30:35.947Z,-1.45
2023-03-19T14:33:06.364Z,-1.17
2023-03-19T14:35:44.169Z,-1.30
2023-03-19T14:38:16.416Z,-1.46
2023-03-19T14:40:45.657Z,-1.34
2023-03-19T14:43:34.934Z,-1.30
2023-03-19T14:46:05.794Z,-1.69
2023-03-19T14:48:51.805Z,-1.29
2023-03-19T14:51:31.564Z,-1.38
2023-03-19T14:53:58.772Z,-1.12
2023-03-19T14:56:27.620Z,-1.25
2023-03-19T14:58:56.181Z,-1.53
2023-03-19T15:01:29.839Z,-1.13
2023-03-19T15:04:10.886Z,-1.48
2023-03-19T15:07:35.407Z,-1.70
2023-03-19T15:10:16.271Z,-1.94
2023-03-19T15:12:56.292Z,-1.96
2023-03-19T15:15:42.565Z,-1.81
2023-03-19T15:18:11.386Z,-1.83
2023-03-19T15:20:51.208Z,-1.69
2023-03-19T15:23:26.845Z,-1.83
2023-03-19T15:26:03.341Z,-1.64
2023-03-19T15:28:44.770Z,-0.94
2023-03-19T15:31:31.119Z,-1.47
2023-03-19T15:34:17.322Z,-1.56
2023-03-19T15:36:45.380Z,-1.80
2023-03-19T15:39:17.615Z,-2.07
2023-03-19T15:41:46.729Z,-2.07
2023-03-19T15:44:17.923Z,-1.69
2023-03-19T15:46:46.456Z,-1.82
2023-03-19T15:49:32.335Z,-1.41
2023-03-19T15:52:03.118Z,-1.23
2023-03-19T15:54:30.697Z,-1.42
2023-03-19T15:56:58.145Z,-1.31
2023-03-19T15:59:30.203Z,-1.31
2023-03-19T16:02:01.708Z,-1.07
2023-03-19T16:04:45.656Z,-0.56
2023-03-19T16:07:33.310Z,-0.54
2023-03-19T16:10:00.643Z,-1.26
2023-03-19T16:12:37.784Z,-0.81
2023-03-19T16:15:40.419Z,-0.77
2023-03-19T16:18:17.116Z,-0.78
2023-03-19T16:20:46.096Z,-1.31
2023-03-19T16:23:17.509Z,-0.77
2023-03-19T16:25:45.239Z,-1.34
2023-03-19T16:28:21.014Z,-0.81
2023-03-19T16:30:49.633Z,-1.28
2023-03-19T16:33:17.422Z,-1.26
2023-03-19T16:35:47.704Z,-1.60
2023-03-19T16:38:22.597Z,-1.00
2023-03-19T16:40:53.565Z,-0.83
2023-03-19T16:43:24.181Z,-0.71
2023-03-19T16:45:52.766Z,-0.37
2023-03-19T16:48:20.324Z,-0.19
2023-03-19T16:50:47.790Z,-0.28
2023-03-19T16:53:21.770Z,0.07
2023-03-19T16:55:49.128Z,-0.04
2023-03-19T16:58:29.793Z,-0.13
2023-03-19T17:00:57.333Z,0.09
2023-03-19T17:03:27.337Z,-1.17
2023-03-19T17:05:54.758Z,-1.07
2023-03-19T17:08:23.650Z,-1.47
2023-03-19T17:10:52.416Z,-1.28
2023-03-19T17:13:30.298Z,-0.94
2023-03-19T17:15:58.833Z,-1.07
2023-03-19T17:18:28.317Z,-0.75
2023-03-19T17:21:16.004Z,-0.58
2023-03-19T17:23:43.807Z,-0.83
2023-03-19T17:26:16.112Z,-0.64
2023-03-19T17:28:43.600Z,-0.78
2023-03-19T17:31:26.233Z,-0.42
2023-03-19T17:33:57.541Z,-0.84
2023-03-19T17:36:24.815Z,-0.92
2023-03-19T17:38:54.828Z,-0.81
2023-03-19T17:41:22.669Z,-1.11
2023-03-19T17:43:50.119Z,-1.02
2023-03-19T17:46:27.819Z,-1.31
2023-03-19T17:48:55.940Z,-1.50
2023-03-19T17:51:24.147Z,-0.91
2023-03-19T17:53:53.141Z,-0.92
2023-03-19T17:56:21.894Z,-1.28
2023-03-19T17:58:50.463Z,-1.55
2023-03-19T18:01:26.352Z,-2.29
2023-03-19T18:03:55.588Z,-1.70
2023-03-19T18:06:24.546Z,-1.93
2023-03-19T18:08:51.846Z,-1.62
2023-03-19T18:11:19.134Z,-1.31
2023-03-19T18:13:47.090Z,-1.89
2023-03-19T18:16:14.461Z,-1.14
2023-03-19T18:18:44.020Z,-2.01
2023-03-19T18:21:15.051Z,-1.93
2023-03-19T18:23:43.016Z,-1.64
2023-03-19T18:26:12.139Z,-1.83
2023-03-19T18:28:39.454Z,-1.79
2023-03-19T18:31:13.915Z,-1.48
2023-03-19T18:33:41.298Z,-1.13
2023-03-19T18:36:08.799Z,-1.44
2023-03-19T18:38:36.051Z,-1.21
2023-03-19T18:41:03.372Z,-1.13
2023-03-19T18:43:31.089Z,-1.52
2023-03-19T18:45:58.358Z,-1.81
2023-03-19T18:48:31.702Z,-2.52
2023-03-19T18:50:59.201Z,-1.45
2023-03-19T18:53:26.858Z,-1.63
2023-03-19T18:55:54.050Z,-1.18
2023-03-19T18:58:23.066Z,-1.91
2023-03-19T19:00:51.380Z,-1.97
2023-03-19T19:03:21.546Z,-2.44
2023-03-19T19:05:50.253Z,-2.58
2023-03-19T19:08:19.069Z,-1.91
2023-03-19T19:10:52.161Z,-1.86
2023-03-19T19:13:21.429Z,-2.61
2023-03-19T19:15:48.923Z,-2.63
2023-03-19T19:18:20.879Z,-2.78
2023-03-19T19:20:49.158Z,-3.02
2023-03-19T19:23:16.806Z,-2.65
2023-03-19T19:25:45.749Z,-3.05
2023-03-19T19:28:22.648Z,-2.47
2023-03-19T19:30:50.169Z,-2.48
2023-03-19T19:33:18.681Z,-2.13
2023-03-19T19:35:46.518Z,-2.34
2023-03-19T19:38:14.032Z,-2.81
2023-03-19T19:40:44.423Z,-2.97
2023-03-19T19:43:14.586Z,-2.52
2023-03-19T19:45:43.975Z,-3.14
2023-03-19T19:48:21.916Z,-3.45
2023-03-19T19:50:49.543Z,-2.88
2023-03-19T19:53:17.141Z,-2.91
2023-03-19T19:55:45.032Z,-2.35
2023-03-19T19:58:20.113Z,-2.39
2023-03-19T20:00:56.677Z,-2.54
2023-03-19T20:03:31.661Z,-2.12
2023-03-19T20:05:59.634Z,-2.21
2023-03-19T20:08:27.423Z,-2.62
2023-03-19T20:10:54.719Z,-2.32
2023-03-19T20:13:26.742Z,-1.79
2023-03-19T20:15:56.093Z,-1.67
2023-03-19T20:18:24.816Z,-1.40
2023-03-19T20:20:53.186Z,-1.42
2023-03-19T20:23:21.156Z,-1.41
2023-03-19T20:25:49.144Z,-1.42
2023-03-19T20:28:27.515Z,-1.20
2023-03-19T20:30:55.063Z,-1.14
2023-03-19T20:33:22.771Z,-1.20
2023-03-19T20:35:50.464Z,-1.25
2023-03-19T20:38:17.979Z,-1.13
2023-03-19T20:40:52.727Z,-0.89
2023-03-19T20:43:28.037Z,-0.97
2023-03-19T20:45:59.834Z,-0.91
2023-03-19T20:48:27.601Z,-1.21
2023-03-19T20:50:55.608Z,-1.18
2023-03-19T20:53:23.287Z,-1.17
2023-03-19T20:55:51.300Z,-0.90
2023-03-19T20:58:27.835Z,-1.07
2023-03-19T21:00:56.698Z,-1.23
2023-03-19T21:03:28.441Z,-0.98
2023-03-19T21:06:00.267Z,-1.12
2023-03-19T21:08:44.694Z,-1.49
2023-03-19T21:11:22.535Z,-1.46
2023-03-19T21:13:53.401Z,-1.62
2023-03-19T21:16:22.299Z,-1.62
2023-03-19T21:18:49.813Z,-1.44
2023-03-19T21:21:17.500Z,-1.28
2023-03-19T21:23:51.669Z,-1.58
2023-03-19T21:26:20.210Z,-1.57
2023-03-19T21:28:48.796Z,-1.34
2023-03-19T21:31:20.884Z,-1.37
2023-03-19T21:33:49.554Z,-1.33
2023-03-19T21:36:17.211Z,-1.13
2023-03-19T21:38:44.769Z,-1.57
2023-03-19T21:41:23.980Z,-1.45
2023-03-19T21:43:55.387Z,-1.49
2023-03-19T21:46:25.302Z,-1.35
2023-03-19T21:48:53.695Z,-1.45
2023-03-19T21:51:21.359Z,-1.18
2023-03-19T21:53:48.671Z,-1.23
2023-03-19T21:56:32.781Z,-1.26
2023-03-19T21:59:01.460Z,-1.43
2023-03-19T22:01:28.696Z,-1.25
2023-03-19T22:03:57.265Z,-1.10
2023-03-19T22:06:24.797Z,-1.19
2023-03-19T22:08:54.370Z,-1.18
2023-03-19T22:11:31.823Z,-1.32
2023-03-19T22:14:03.284Z,-1.31
2023-03-19T22:16:31.747Z,-1.30
2023-03-19T22:18:59.028Z,-1.24
2023-03-19T22:21:26.310Z,-1.28
2023-03-19T22:23:53.918Z,-1.02
2023-03-19T22:26:30.287Z,-1.04
2023-03-19T22:28:59.192Z,-1.10
2023-03-19T22:31:26.458Z,-1.13
2023-03-19T22:33:53.941Z,-0.97
2023-03-19T22:36:21.208Z,-1.08
2023-03-19T22:38:49.611Z,-1.06
2023-03-19T22:41:18.863Z,-1.01
2023-03-19T22:43:46.669Z,-0.94
2023-03-19T22:46:15.642Z,-0.91
2023-03-19T22:48:45.184Z,-0.92
2023-03-19T22:51:17.511Z,-0.92
2023-03-19T22:53:45.789Z,-0.90
2023-03-19T22:56:14.099Z,-1.05
2023-03-19T22:58:41.902Z,-0.99
2023-03-19T23:01:21.605Z,-0.99
2023-03-19T23:03:49.682Z,-0.94
2023-03-19T23:06:29.210Z,-0.88
2023-03-19T23:08:57.386Z,-0.91
2023-03-19T23:11:25.470Z,-0.93
2023-03-19T23:13:54.624Z,-0.89
2023-03-19T23:16:24.883Z,-0.79
2023-03-19T23:18:52.765Z,-0.74
2023-03-19T23:21:21.224Z,-0.67
2023-03-19T23:23:48.537Z,-0.75
2023-03-19T23:26:30.106Z,-0.70
2023-03-19T23:29:01.308Z,-0.68
2023-03-19T23:31:28.990Z,-0.68
2023-03-19T23:33:57.842Z,-0.75
2023-03-19T23:36:25.075Z,-0.82
2023-03-19T23:38:52.592Z,-0.72
2023-03-19T23:41:24.816Z,-0.67
2023-03-19T23:43:53.329Z,-0.58
2023-03-19T23:46:21.022Z,-0.63
2023-03-19T23:48:48.333Z,-0.57
2023-03-19T23:51:16.398Z,-0.50
2023-03-19T23:53:43.702Z,-0.36
2023-03-19T23:56:22.030Z,-0.37
2023-03-19T23:58:50.874Z,-0.35
